createdAt,value
2022-08-26T00:01:00.506Z,22.34
2022-08-26T00:03:48.424Z,22.37
2022-08-26T00:06:37.404Z,22.31
2022-08-26T00:09:24.735Z,22.30
2022-08-26T00:12:05.550Z,22.27
2022-08-26T00:14:52.326Z,22.31
2022-08-26T00:17:32.464Z,22.26
2022-08-26T00:20:22.366Z,22.25
2022-08-26T00:23:10.316Z,22.22
2022-08-26T00:25:50.864Z,22.20
2022-08-26T00:28:38.323Z,22.16
2022-08-26T00:31:20.815Z,22.12
2022-08-26T00:34:09.445Z,22.14
2022-08-26T00:36:56.330Z,22.11
2022-08-26T00:39:36.402Z,22.17
2022-08-26T00:42:23.280Z,22.18
2022-08-26T00:45:11.640Z,22.18
2022-08-26T00:48:08.307Z,22.20
2022-08-26T00:50:57.465Z,22.24
2022-08-26T00:53:52.321Z,22.22
2022-08-26T00:56:57.811Z,22.10
2022-08-26T00:59:48.313Z,22.13
2022-08-26T01:02:28.945Z,22.17
2022-08-26T01:05:18.375Z,22.16
2022-08-26T01:07:58.422Z,22.19
2022-08-26T01:10:45.277Z,22.19
2022-08-26T01:13:26.392Z,22.25
2022-08-26T01:16:15.386Z,22.25
2022-08-26T01:18:56.437Z,22.21
2022-08-26T01:21:55.266Z,22.22
2022-08-26T01:24:37.395Z,22.16
2022-08-26T01:27:27.265Z,22.20
2022-08-26T01:30:13.400Z,22.19
2022-08-26T01:33:03.208Z,22.15
2022-08-26T01:35:44.787Z,22.19
2022-08-26T01:38:31.560Z,22.20
2022-08-26T01:41:16.236Z,22.21
2022-08-26T01:44:07.244Z,22.24
2022-08-26T01:46:58.222Z,22.20
2022-08-26T01:49:39.000Z,22.14
2022-08-26T01:52:31.264Z,22.14
2022-08-26T01:55:15.339Z,22.11
2022-08-26T01:58:25.303Z,22.13
2022-08-26T02:01:13.361Z,22.15
2022-08-26T02:04:09.284Z,22.17
2022-08-26T02:06:51.470Z,22.15
2022-08-26T02:09:41.392Z,22.17
2022-08-26T02:12:22.350Z,22.13
2022-08-26T02:15:13.214Z,22.09
2022-08-26T02:18:00.220Z,22.15
2022-08-26T02:20:40.335Z,22.10
2022-08-26T02:23:27.207Z,22.12
2022-08-26T02:26:17.931Z,22.16
2022-08-26T02:29:19.220Z,22.16
2022-08-26T02:32:01.300Z,22.16
2022-08-26T02:34:48.233Z,22.17
2022-08-26T02:37:28.333Z,22.17
2022-08-26T02:40:17.212Z,22.17
2022-08-26T02:42:57.335Z,22.20
2022-08-26T02:45:44.185Z,22.20
2022-08-26T02:48:27.348Z,22.24
2022-08-26T02:51:14.169Z,22.32
2022-08-26T02:53:54.324Z,22.38
2022-08-26T02:56:42.183Z,22.39
2022-08-26T02:59:24.349Z,22.38
2022-08-26T03:02:11.385Z,22.44
2022-08-26T03:04:57.707Z,22.39
2022-08-26T03:26:14.989Z,21.86
2022-08-26T03:29:21.988Z,22.02
2022-08-26T03:32:04.126Z,22.16
2022-08-26T03:34:50.992Z,22.26
2022-08-26T03:37:31.275Z,22.35
2022-08-26T03:40:14.022Z,22.56
2022-08-26T03:42:54.419Z,22.67
2022-08-26T03:45:41.980Z,22.75
2022-08-26T03:48:28.991Z,22.84
2022-08-26T03:51:11.096Z,22.94
2022-08-26T03:53:57.995Z,23.00
2022-08-26T03:56:38.601Z,23.09
2022-08-26T03:59:26.938Z,23.04
2022-08-26T04:02:08.439Z,22.90
2022-08-26T04:04:57.958Z,22.96
2022-08-26T04:07:38.074Z,23.04
2022-08-26T04:10:30.980Z,22.97
2022-08-26T04:13:18.959Z,23.08
2022-08-26T04:15:59.467Z,23.04
2022-08-26T04:18:46.851Z,23.04
2022-08-26T04:21:28.594Z,23.15
2022-08-26T04:24:15.935Z,23.21
2022-08-26T04:26:57.357Z,23.53
2022-08-26T04:29:45.957Z,23.83
2022-08-26T04:32:28.682Z,23.74
2022-08-26T04:35:15.901Z,23.53
2022-08-26T04:37:57.490Z,23.66
2022-08-26T04:40:43.905Z,23.69
2022-08-26T04:43:30.647Z,23.64
2022-08-26T04:46:19.070Z,23.55
2022-08-26T04:48:59.323Z,23.57
2022-08-26T04:51:45.905Z,23.58
2022-08-26T04:54:26.417Z,24.04
2022-08-26T04:57:12.847Z,24.61
2022-08-26T04:59:59.882Z,24.95
2022-08-26T05:02:47.885Z,25.34
2022-08-26T05:05:32.091Z,25.51
2022-08-26T05:08:18.914Z,25.67
2022-08-26T05:11:05.852Z,25.97
2022-08-26T05:13:46.001Z,25.91
2022-08-26T05:16:33.881Z,26.09
2022-08-26T05:19:18.728Z,25.92
2022-08-26T05:22:05.896Z,26.07
2022-08-26T05:24:59.879Z,26.63
2022-08-26T05:27:46.875Z,26.68
2022-08-26T05:30:26.983Z,27.01
2022-08-26T05:33:15.852Z,27.41
2022-08-26T05:35:55.997Z,27.49
2022-08-26T05:38:44.006Z,28.34
2022-08-26T05:41:36.606Z,28.62
2022-08-26T05:44:19.912Z,29.43
2022-08-26T05:47:00.270Z,30.34
2022-08-26T05:49:51.255Z,30.75
2022-08-26T05:52:42.783Z,30.39
2022-08-26T05:55:23.848Z,30.39
2022-08-26T05:58:04.257Z,30.83
2022-08-26T06:00:51.899Z,31.04
2022-08-26T06:03:35.778Z,31.15
2022-08-26T06:06:27.469Z,31.19
2022-08-26T06:09:11.214Z,31.93
2022-08-26T06:11:57.847Z,31.60
2022-08-26T06:14:44.814Z,29.77
2022-08-26T06:17:29.791Z,29.10
2022-08-26T06:20:17.805Z,28.73
2022-08-26T06:23:16.737Z,28.35
2022-08-26T06:26:03.816Z,29.17
2022-08-26T06:28:45.686Z,30.11
2022-08-26T06:31:33.852Z,30.57
2022-08-26T06:34:20.812Z,31.11
2022-08-26T06:37:12.845Z,32.17
2022-08-26T06:39:53.002Z,31.89
2022-08-26T06:42:39.790Z,32.93
2022-08-26T06:45:19.915Z,34.56
2022-08-26T06:48:06.773Z,35.36
2022-08-26T06:50:54.845Z,35.72
2022-08-26T06:53:36.938Z,34.56
2022-08-26T06:56:25.821Z,35.01
2022-08-26T06:59:07.711Z,34.32
2022-08-26T07:01:56.817Z,33.84
2022-08-26T07:04:37.176Z,33.59
2022-08-26T07:07:27.731Z,34.94
2022-08-26T07:10:15.741Z,34.12
2022-08-26T07:12:55.878Z,34.11
2022-08-26T07:15:48.838Z,34.08
2022-08-26T07:18:44.961Z,34.66
2022-08-26T07:21:26.511Z,35.20
2022-08-26T07:24:13.763Z,35.62
2022-08-26T07:27:05.913Z,34.97
2022-08-26T07:29:54.791Z,35.76
2022-08-26T07:32:35.506Z,37.61
2022-08-26T07:35:22.777Z,36.57
2022-08-26T07:38:04.098Z,35.88
2022-08-26T07:40:51.741Z,34.03
2022-08-26T07:43:35.210Z,34.60
2022-08-26T07:46:30.326Z,31.05
2022-08-26T07:49:18.874Z,30.02
2022-08-26T07:51:59.846Z,29.46
2022-08-26T07:54:47.759Z,29.36
2022-08-26T07:57:34.740Z,28.93
2022-08-26T08:00:16.741Z,29.23
2022-08-26T08:03:03.763Z,29.05
2022-08-26T08:05:46.421Z,28.98
2022-08-26T08:08:33.754Z,29.00
2022-08-26T08:11:21.727Z,29.21
2022-08-26T08:14:11.633Z,28.86
2022-08-26T08:16:58.788Z,29.47
2022-08-26T08:19:45.689Z,28.81
2022-08-26T08:22:26.172Z,28.09
2022-08-26T08:25:13.683Z,28.06
2022-08-26T08:27:54.303Z,27.68
2022-08-26T08:30:41.718Z,27.47
2022-08-26T08:33:22.715Z,27.70
2022-08-26T08:36:10.671Z,27.50
2022-08-26T08:39:06.498Z,27.65
2022-08-26T08:42:06.703Z,27.50
2022-08-26T08:44:52.135Z,27.25
2022-08-26T08:47:46.702Z,27.47
2022-08-26T08:50:30.017Z,27.41
2022-08-26T08:53:29.744Z,27.51
2022-08-26T08:56:30.723Z,27.33
2022-08-26T08:59:32.816Z,27.34
2022-08-26T09:02:57.766Z,27.60
2022-08-26T09:05:48.725Z,27.63
2022-08-26T09:08:42.735Z,27.31
2022-08-26T09:11:22.881Z,27.49
2022-08-26T09:14:09.743Z,27.50
2022-08-26T09:16:51.815Z,27.49
2022-08-26T09:19:52.733Z,27.60
2022-08-26T09:22:51.740Z,27.67
2022-08-26T09:25:45.755Z,27.70
2022-08-26T09:28:33.678Z,27.82
2022-08-26T09:31:21.000Z,27.81
2022-08-26T09:34:24.642Z,27.99
2022-08-26T09:37:06.798Z,27.92
2022-08-26T09:39:53.664Z,27.86
2022-08-26T09:42:33.866Z,27.92
2022-08-26T09:45:20.714Z,28.06
2022-08-26T09:48:03.836Z,28.08
2022-08-26T09:51:02.644Z,28.10
2022-08-26T09:53:57.978Z,27.84
2022-08-26T09:56:45.565Z,27.72
2022-08-26T09:59:44.618Z,27.63
2022-08-26T10:02:58.156Z,27.33
2022-08-26T10:05:52.726Z,27.18
2022-08-26T10:08:49.696Z,27.05
2022-08-26T10:11:52.624Z,26.89
2022-08-26T10:14:46.705Z,26.83
2022-08-26T10:17:39.743Z,26.76
2022-08-26T10:20:33.678Z,26.85
2022-08-26T10:23:29.899Z,26.95
2022-08-26T10:26:34.600Z,27.03
2022-08-26T10:29:58.619Z,27.03
2022-08-26T10:33:21.685Z,27.27
2022-08-26T10:36:28.711Z,27.11
2022-08-26T10:39:23.577Z,27.29
2022-08-26T10:42:16.623Z,27.39
2022-08-26T10:45:06.056Z,27.47
2022-08-26T10:48:00.640Z,27.63
2022-08-26T10:50:52.595Z,27.58
2022-08-26T10:54:13.626Z,27.59
2022-08-26T10:57:14.648Z,27.84
2022-08-26T11:00:37.631Z,27.98
2022-08-26T11:03:23.648Z,27.98
2022-08-26T11:06:31.685Z,27.94
2022-08-26T11:09:19.551Z,27.91
2022-08-26T11:12:10.326Z,27.94
2022-08-26T11:14:59.218Z,27.81
2022-08-26T11:18:00.107Z,27.89
2022-08-26T11:20:52.564Z,27.79
2022-08-26T11:23:33.690Z,27.81
2022-08-26T11:26:36.154Z,27.74
2022-08-26T11:30:08.539Z,27.81
2022-08-26T11:32:53.893Z,27.70
2022-08-26T11:35:40.547Z,27.72
2022-08-26T11:38:28.895Z,27.75
2022-08-26T11:41:36.500Z,27.72
2022-08-26T11:44:31.544Z,27.81
2022-08-26T11:47:11.830Z,27.79
2022-08-26T11:50:15.565Z,27.81
2022-08-26T11:53:07.845Z,27.79
2022-08-26T11:55:55.556Z,27.73
2022-08-26T11:58:43.606Z,27.71
2022-08-26T12:01:31.428Z,27.58
2022-08-26T12:04:21.620Z,27.57
2022-08-26T12:07:02.644Z,27.57
2022-08-26T12:10:03.493Z,27.48
2022-08-26T12:12:51.486Z,27.42
2022-08-26T12:15:39.572Z,27.28
2022-08-26T12:18:30.107Z,27.38
2022-08-26T12:21:34.778Z,27.28
2022-08-26T12:24:26.292Z,27.44
2022-08-26T12:27:27.449Z,27.52
2022-08-26T12:30:17.979Z,27.53
2022-08-26T12:33:22.817Z,27.70
2022-08-26T12:36:05.034Z,27.59
2022-08-26T12:38:52.483Z,27.62
2022-08-26T12:41:48.622Z,27.66
2022-08-26T12:44:38.456Z,27.76
2022-08-26T12:47:43.135Z,27.81
2022-08-26T12:50:35.451Z,27.67
2022-08-26T12:53:15.666Z,27.75
2022-08-26T12:56:09.424Z,27.86
2022-08-26T12:58:56.430Z,27.53
2022-08-26T13:01:51.602Z,27.59
2022-08-26T13:04:46.220Z,27.82
2022-08-26T13:07:33.445Z,28.16
2022-08-26T13:10:13.563Z,28.44
2022-08-26T13:13:00.437Z,28.63
2022-08-26T13:15:40.659Z,28.83
2022-08-26T13:18:27.422Z,28.57
2022-08-26T13:21:07.544Z,28.67
2022-08-26T13:23:55.388Z,28.65
2022-08-26T13:26:35.796Z,28.49
2022-08-26T13:29:22.415Z,28.64
2022-08-26T13:32:04.773Z,28.48
2022-08-26T13:34:55.418Z,28.60
2022-08-26T13:37:35.689Z,28.61
2022-08-26T13:40:22.468Z,28.50
2022-08-26T13:43:02.848Z,28.74
2022-08-26T13:45:49.390Z,28.60
2022-08-26T13:48:29.533Z,28.55
2022-08-26T13:51:16.350Z,28.40
2022-08-26T13:53:57.775Z,28.65
2022-08-26T13:56:44.383Z,28.49
2022-08-26T13:59:24.558Z,28.47
2022-08-26T14:02:11.391Z,28.31
2022-08-26T14:04:58.361Z,28.50
2022-08-26T14:07:39.239Z,28.63
2022-08-26T14:10:26.379Z,28.52
2022-08-26T14:13:07.601Z,28.44
2022-08-26T14:15:54.418Z,28.19
2022-08-26T14:18:50.720Z,28.24
2022-08-26T14:21:38.440Z,28.05
2022-08-26T14:24:25.364Z,28.13
2022-08-26T14:27:12.568Z,28.20
2022-08-26T14:29:52.400Z,27.98
2022-08-26T14:32:39.356Z,28.17
2022-08-26T14:35:23.545Z,28.21
2022-08-26T14:38:10.406Z,28.29
2022-08-26T14:40:58.411Z,28.11
2022-08-26T14:43:57.858Z,28.20
2022-08-26T14:46:48.379Z,28.16
2022-08-26T14:49:37.334Z,28.05
2022-08-26T14:52:17.475Z,27.85
2022-08-26T14:55:04.366Z,27.85
2022-08-26T14:57:44.428Z,27.85
2022-08-26T15:00:31.308Z,28.03
2022-08-26T15:03:12.637Z,28.07
2022-08-26T15:05:59.342Z,28.27
2022-08-26T15:08:40.116Z,27.90
2022-08-26T15:28:26.476Z,27.33
2022-08-26T15:31:14.500Z,27.58
2022-08-26T15:34:03.490Z,27.72
2022-08-26T15:36:45.992Z,27.95
2022-08-26T15:39:32.505Z,28.17
2022-08-26T15:42:12.862Z,28.28
2022-08-26T15:44:59.471Z,28.40
2022-08-26T15:48:00.979Z,28.38
2022-08-26T15:50:46.448Z,28.37
2022-08-26T15:53:36.433Z,28.26
2022-08-26T15:56:23.496Z,28.19
2022-08-26T15:59:06.325Z,28.30
2022-08-26T16:01:53.508Z,28.32
2022-08-26T16:04:33.822Z,28.26
2022-08-26T16:07:20.402Z,28.27
2022-08-26T16:10:00.977Z,28.03
2022-08-26T16:12:47.431Z,28.07
2022-08-26T16:15:28.012Z,27.99
2022-08-26T16:18:15.449Z,27.96
2022-08-26T16:21:13.761Z,27.91
2022-08-26T16:23:54.415Z,27.73
2022-08-26T16:26:51.464Z,27.64
2022-08-26T16:29:32.580Z,27.51
2022-08-26T16:32:19.405Z,27.43
2022-08-26T16:35:06.438Z,27.51
2022-08-26T16:37:54.438Z,27.48
2022-08-26T16:40:42.437Z,27.38
2022-08-26T16:43:22.562Z,27.33
2022-08-26T16:46:12.502Z,27.25
2022-08-26T16:48:52.573Z,27.24
2022-08-26T16:51:40.412Z,27.17
2022-08-26T16:54:20.525Z,27.19
2022-08-26T16:57:08.384Z,26.90
2022-08-26T16:59:48.615Z,26.71
2022-08-26T17:02:35.504Z,26.68
2022-08-26T17:05:23.394Z,26.24
2022-08-26T17:08:11.583Z,25.93
2022-08-26T17:10:51.701Z,25.77
2022-08-26T17:13:42.419Z,25.77
2022-08-26T17:16:26.616Z,25.51
2022-08-26T17:19:14.381Z,25.51
2022-08-26T17:22:01.401Z,25.31
2022-08-26T17:24:52.341Z,25.22
2022-08-26T17:27:40.417Z,25.31
2022-08-26T17:30:22.557Z,25.34
2022-08-26T17:33:10.845Z,25.27
2022-08-26T17:35:51.815Z,25.26
2022-08-26T17:38:39.352Z,25.36
2022-08-26T17:41:19.809Z,25.30
2022-08-26T17:44:06.384Z,25.28
2022-08-26T17:46:53.460Z,25.27
2022-08-26T17:49:33.447Z,25.26
2022-08-26T17:52:21.365Z,25.26
2022-08-26T17:55:08.325Z,25.24
2022-08-26T17:57:55.349Z,25.25
2022-08-26T18:00:42.363Z,25.25
2022-08-26T18:03:30.343Z,25.16
2022-08-26T18:06:15.500Z,25.16
2022-08-26T18:09:02.304Z,25.16
2022-08-26T18:11:42.408Z,25.13
2022-08-26T18:14:29.321Z,25.16
2022-08-26T18:17:17.528Z,25.12
2022-08-26T18:20:06.382Z,25.04
2022-08-26T18:22:53.293Z,25.08
2022-08-26T18:25:40.324Z,25.08
2022-08-26T18:28:34.329Z,25.16
2022-08-26T18:31:15.538Z,25.22
2022-08-26T18:34:02.313Z,25.25
2022-08-26T18:36:50.268Z,25.15
2022-08-26T18:39:37.312Z,25.08
2022-08-26T18:42:24.446Z,25.04
2022-08-26T18:45:04.307Z,24.99
2022-08-26T18:47:51.325Z,24.98
2022-08-26T18:50:31.425Z,24.91
2022-08-26T18:53:18.308Z,24.97
2022-08-26T18:56:05.319Z,25.04
2022-08-26T18:58:45.993Z,24.95
2022-08-26T19:01:33.373Z,24.95
2022-08-26T19:04:15.371Z,24.91
2022-08-26T19:07:04.519Z,24.84
2022-08-26T19:09:44.743Z,24.73
2022-08-26T19:12:33.281Z,24.76
2022-08-26T19:15:20.308Z,24.90
2022-08-26T19:18:07.344Z,25.00
2022-08-26T19:20:48.149Z,25.14
2022-08-26T19:23:35.511Z,25.30
2022-08-26T19:26:30.322Z,25.23
2022-08-26T19:29:11.301Z,25.01
2022-08-26T19:31:58.279Z,24.96
2022-08-26T19:34:45.261Z,24.99
2022-08-26T19:37:33.525Z,25.04
2022-08-26T19:40:13.944Z,25.14
2022-08-26T19:43:01.288Z,25.18
2022-08-26T19:45:41.716Z,24.91
2022-08-26T19:48:28.250Z,24.70
2022-08-26T19:51:15.267Z,24.63
2022-08-26T19:54:02.280Z,24.46
2022-08-26T19:56:49.872Z,24.46
2022-08-26T19:59:29.238Z,24.53
2022-08-26T20:02:13.091Z,24.38
2022-08-26T20:05:00.241Z,24.53
2022-08-26T20:07:48.238Z,24.59
2022-08-26T20:10:30.401Z,24.68
2022-08-26T20:13:17.239Z,24.74
2022-08-26T20:15:57.381Z,24.78
2022-08-26T20:19:04.197Z,24.33
2022-08-26T20:21:53.195Z,24.18
2022-08-26T20:24:35.159Z,23.96
2022-08-26T20:27:22.232Z,24.17
2022-08-26T20:30:04.056Z,24.34
2022-08-26T20:32:53.241Z,24.14
2022-08-26T20:35:33.789Z,24.29
2022-08-26T20:38:21.520Z,24.39
2022-08-26T20:41:08.898Z,24.29
2022-08-26T20:43:50.226Z,24.21
2022-08-26T20:46:30.636Z,24.34
2022-08-26T20:49:18.218Z,24.28
2022-08-26T20:51:59.656Z,24.26
2022-08-26T20:54:46.301Z,24.33
2022-08-26T20:57:36.091Z,24.29
2022-08-26T21:00:22.761Z,24.33
2022-08-26T21:03:14.257Z,24.31
2022-08-26T21:05:54.475Z,24.31
2022-08-26T21:08:45.739Z,24.40
2022-08-26T21:11:29.406Z,24.29
2022-08-26T21:14:18.335Z,24.18
2022-08-26T21:17:05.246Z,24.19
2022-08-26T21:19:52.392Z,24.07
2022-08-26T21:22:41.284Z,24.10
2022-08-26T21:25:28.281Z,24.03
2022-08-26T21:28:15.365Z,23.80
2022-08-26T21:30:55.166Z,23.76
2022-08-26T21:33:36.342Z,23.73
2022-08-26T21:36:25.195Z,23.70
2022-08-26T21:39:10.759Z,23.76
2022-08-26T21:41:59.132Z,23.78
2022-08-26T21:44:40.614Z,23.66
2022-08-26T21:47:27.190Z,23.70
2022-08-26T21:50:15.160Z,23.79
2022-08-26T21:52:55.264Z,23.65
2022-08-26T21:55:43.145Z,23.56
2022-08-26T21:58:23.294Z,23.44
2022-08-26T22:01:11.145Z,23.47
2022-08-26T22:03:52.635Z,23.49
2022-08-26T22:06:41.165Z,23.38
2022-08-26T22:09:31.167Z,23.44
2022-08-26T22:12:19.115Z,23.36
2022-08-26T22:14:59.461Z,23.35
2022-08-26T22:17:46.137Z,23.43
2022-08-26T22:20:33.082Z,23.47
2022-08-26T22:23:13.546Z,23.21
2022-08-26T22:26:01.073Z,23.10
2022-08-26T22:28:58.492Z,23.02
2022-08-26T22:31:47.099Z,22.87
2022-08-26T22:34:34.154Z,22.84
2022-08-26T22:37:21.170Z,22.95
2022-08-26T22:40:01.296Z,22.92
2022-08-26T22:42:56.902Z,22.79
2022-08-26T22:45:40.249Z,22.85
2022-08-26T22:48:31.099Z,22.91
2022-08-26T22:51:12.253Z,22.64
2022-08-26T22:53:59.085Z,22.68
2022-08-26T22:56:46.141Z,22.63
2022-08-26T22:59:26.538Z,22.56
2022-08-26T23:02:13.050Z,22.58
2022-08-26T23:04:53.576Z,22.56
2022-08-26T23:07:40.079Z,22.46
2022-08-26T23:10:20.637Z,22.46
2022-08-26T23:13:07.045Z,22.51
2022-08-26T23:15:47.651Z,22.45
2022-08-26T23:18:34.043Z,22.46
2022-08-26T23:21:21.286Z,22.53
2022-08-26T23:24:29.027Z,22.57
2022-08-26T23:27:23.001Z,22.43
2022-08-26T23:30:15.999Z,22.51
2022-08-26T23:32:56.199Z,22.51
2022-08-26T23:35:43.009Z,22.46
2022-08-26T23:38:30.038Z,22.50
2022-08-26T23:41:17.077Z,22.54
2022-08-26T23:44:05.051Z,22.58
2022-08-26T23:46:45.459Z,22.65
2022-08-26T23:49:32.040Z,22.73
2022-08-26T23:52:31.055Z,22.77
2022-08-26T23:55:20.025Z,22.75
2022-08-26T23:58:07.088Z,22.98
